Terminal Aerodrome Forecast
Issued by NWS

Home | Current Version | Previous Version | Text Only | Print | Product List | Glossary On
Versions: 1 2 3 4 5 6 7 8 9 10 11 12 13
000
FTAK31 PAJN 270500
TAFAWG
TAF
PAWG 270538Z 2706/2806 13005KT P6SM VCSH BKN030 OVC045
     FM270900 12006KT P6SM VCSH SCT020 BKN030 OVC050
     FM271800 11012KT 6SM -SHRA SCT020 OVC040
      AMD LTD TO CLD VIS AND WIND 2706/2715=

USA.gov is the U.S. government's official web portal to all federal, state and local government web resources and services.